Time;durP1;ratioP1;P1;durP2;ratioP2;P2;SDS_P1;SDS_P2;PMS_P1;PMS_P2;Temp;Humidity;BMP_temperature;BMP_pressure;BME280_temperature;BME280_humidity;BME280_pressure;Samples;Min_cycle;Max_cycle;Signal;HPM_P1;HPM_P2
2021/03/05 00:00:17;;;;;;;44.47;23.67;;;7.20;92.00;;;;;;4999465;28;20064;-72
2021/03/05 00:02:43;;;;;;;48.58;26.13;;;7.20;91.90;;;;;;5014610;28;20104;-72
2021/03/05 00:05:10;;;;;;;50.20;26.73;;;7.10;92.00;;;;;;5006607;28;20488;-72
2021/03/05 00:07:36;;;;;;;44.20;25.23;;;7.10;92.20;;;;;;5003424;28;20527;-72
2021/03/05 00:10:07;;;;;;;48.90;24.15;;;7.00;92.40;;;;;;5004126;28;21628;-72
2021/03/05 00:12:34;;;;;;;46.88;24.02;;;7.00;92.60;;;;;;5006556;28;20038;-72
2021/03/05 00:15:00;;;;;;;49.97;25.48;;;7.00;92.70;;;;;;5003912;28;20446;-72
2021/03/05 00:17:25;;;;;;;49.53;26.58;;;7.00;92.70;;;;;;5035756;28;20052;-72
2021/03/05 00:19:51;;;;;;;47.30;25.80;;;6.90;92.80;;;;;;5011877;28;20026;-72
2021/03/05 00:22:17;;;;;;;53.60;29.13;;;7.00;92.90;;;;;;5005816;28;20022;-72
2021/03/05 00:24:42;;;;;;;50.67;25.98;;;6.90;92.90;;;;;;5006166;28;20036;-72
2021/03/05 00:27:08;;;;;;;53.10;29.58;;;6.90;92.90;;;;;;5005094;28;20044;-72
2021/03/05 00:29:34;;;;;;;51.85;29.40;;;6.90;93.00;;;;;;5003554;28;20034;-72
2021/03/05 00:31:59;;;;;;;47.22;28.67;;;6.90;93.10;;;;;;5003276;28;20060;-72
2021/03/05 00:34:25;;;;;;;50.92;28.73;;;6.80;93.10;;;;;;5010022;28;20052;-72
2021/03/05 00:36:51;;;;;;;49.67;26.25;;;6.80;93.10;;;;;;5017771;28;20124;-72
2021/03/05 00:39:16;;;;;;;50.25;25.52;;;6.80;93.10;;;;;;5002266;28;20022;-72
2021/03/05 00:41:42;;;;;;;44.65;24.98;;;6.80;93.00;;;;;;5001861;28;20030;-72
2021/03/05 00:44:09;;;;;;;44.83;24.92;;;6.80;93.10;;;;;;5008905;28;20041;-72
2021/03/05 00:46:34;;;;;;;53.22;28.25;;;6.80;93.00;;;;;;5003137;28;20038;-72
2021/03/05 00:49:00;;;;;;;47.28;27.00;;;6.70;93.20;;;;;;5001931;28;20096;-71
2021/03/05 00:51:26;;;;;;;50.22;25.95;;;6.80;93.30;;;;;;5002335;28;20030;-72
2021/03/05 00:53:52;;;;;;;49.67;26.60;;;6.90;93.10;;;;;;5008388;28;20448;-72
2021/03/05 00:56:18;;;;;;;51.75;29.30;;;6.90;93.10;;;;;;5003999;28;20119;-72
2021/03/05 00:58:44;;;;;;;53.10;26.50;;;6.80;93.30;;;;;;5002292;28;20022;-72
2021/03/05 01:01:09;;;;;;;54.92;29.02;;;6.70;93.40;;;;;;5002872;28;20354;-72
2021/03/05 01:03:35;;;;;;;52.80;27.40;;;6.80;93.40;;;;;;5008257;28;20097;-72
2021/03/05 01:06:01;;;;;;;45.10;26.58;;;6.70;93.60;;;;;;5002105;28;20040;-72
2021/03/05 01:08:27;;;;;;;50.30;27.45;;;6.70;93.60;;;;;;5002483;28;20172;-72
2021/03/05 01:10:53;;;;;;;50.88;29.33;;;6.60;93.90;;;;;;5004650;28;20473;-72
2021/03/05 01:13:19;;;;;;;50.17;28.17;;;6.60;94.10;;;;;;5003727;28;20030;-72
2021/03/05 01:15:44;;;;;;;52.97;28.02;;;6.50;94.30;;;;;;5012936;28;20429;-72
2021/03/05 01:18:10;;;;;;;53.67;30.00;;;6.60;94.30;;;;;;5014841;28;20392;-72
2021/03/05 01:20:36;;;;;;;55.15;31.70;;;6.60;94.30;;;;;;5004208;28;20125;-72
2021/03/05 01:23:02;;;;;;;57.20;28.42;;;6.50;94.40;;;;;;5002091;28;20041;-72
2021/03/05 01:25:32;;;;;;;53.05;30.02;;;6.50;94.70;;;;;;5009870;28;20038;-72
2021/03/05 01:27:58;;;;;;;68.68;34.47;;;6.50;95.00;;;;;;5001712;28;20026;-72
2021/03/05 01:30:24;;;;;;;60.53;32.50;;;6.40;95.00;;;;;;5002300;28;20092;-72
2021/03/05 01:32:51;;;;;;;57.40;34.08;;;6.50;95.00;;;;;;5001646;28;20030;-72
2021/03/05 01:35:23;;;;;;;59.55;31.42;;;6.50;95.10;;;;;;5007772;28;20479;-72
2021/03/05 01:37:49;;;;;;;57.15;32.88;;;6.40;95.00;;;;;;5000861;28;20721;-72
2021/03/05 01:40:29;;;;;;;58.63;30.02;;;6.40;95.10;;;;;;5002481;28;20045;-72
2021/03/05 01:42:55;;;;;;;57.78;29.75;;;6.40;94.90;;;;;;5001467;28;20029;-72
2021/03/05 01:45:24;;;;;;;62.90;31.98;;;6.40;95.00;;;;;;5001503;28;20068;-72
2021/03/05 01:47:54;;;;;;;60.67;31.95;;;6.20;95.20;;;;;;5003484;28;21826;-72
2021/03/05 01:50:29;;;;;;;51.00;29.23;;;6.20;95.50;;;;;;5000638;28;21281;-72
2021/03/05 01:53:02;;;;;;;49.88;27.70;;;6.10;95.60;;;;;;5007910;28;20072;-72
2021/03/05 01:55:28;;;;;;;53.53;30.10;;;6.10;95.80;;;;;;5002838;28;20100;-72
2021/03/05 01:57:54;;;;;;;48.80;28.38;;;6.10;95.60;;;;;;5007704;28;20037;-72
2021/03/05 02:00:46;;;;;;;62.65;31.52;;;6.20;95.70;;;;;;5000405;28;21354;-72
2021/03/05 02:03:12;;;;;;;55.65;30.77;;;6.10;96.00;;;;;;5006417;28;20492;-72
2021/03/05 02:05:39;;;;;;;52.70;28.35;;;6.20;95.90;;;;;;5000836;28;20030;-72
2021/03/05 02:08:09;;;;;;;55.30;31.00;;;6.20;95.80;;;;;;5010348;28;20036;-72
2021/03/05 02:10:35;;;;;;;59.90;32.83;;;6.30;95.80;;;;;;5002680;28;21607;-72
2021/03/05 02:13:01;;;;;;;54.38;29.40;;;6.20;95.80;;;;;;5000838;28;20443;-72
2021/03/05 02:15:27;;;;;;;50.58;29.20;;;6.20;95.90;;;;;;5010103;28;20037;-72
2021/03/05 02:18:26;;;;;;;50.45;24.45;;;6.20;95.80;;;;;;5007980;28;20565;-72
2021/03/05 02:20:54;;;;;;;51.55;25.02;;;6.10;95.70;;;;;;5002140;28;20037;-72
2021/03/05 02:23:41;;;;;;;49.80;27.98;;;6.20;95.70;;;;;;5003730;28;20052;-72
2021/03/05 02:26:52;;;;;;;63.10;33.53;;;6.30;95.60;;;;;;5004702;28;20057;-72
2021/03/05 02:29:49;;;;;;;59.08;30.35;;;6.40;95.90;;;;;;5005004;28;20434;-72
2021/03/05 02:32:41;;;;;;;56.63;32.30;;;6.70;95.40;;;;;;5000190;28;20021;-72
2021/03/05 02:35:08;;;;;;;61.15;32.80;;;6.70;95.40;;;;;;4985425;28;20523;-72
2021/03/05 02:37:39;;;;;;;55.25;31.20;;;6.80;95.20;;;;;;5007573;28;20033;-72
2021/03/05 02:40:25;;;;;;;53.55;29.45;;;6.90;95.00;;;;;;5012325;28;20156;-72
2021/03/05 02:43:04;;;;;;;53.03;28.33;;;6.80;95.30;;;;;;5005346;28;20392;-72
2021/03/05 02:45:37;;;;;;;57.40;28.98;;;6.80;95.50;;;;;;5004720;28;20042;-72
2021/03/05 02:48:08;;;;;;;56.00;28.65;;;6.70;95.60;;;;;;5005207;28;20034;-72
2021/03/05 02:50:40;;;;;;;52.72;28.85;;;6.70;96.20;;;;;;5010260;28;20029;-72
2021/03/05 02:53:09;;;;;;;47.40;24.48;;;6.60;96.40;;;;;;5006517;28;20157;-72
2021/03/05 02:55:39;;;;;;;58.25;31.25;;;6.50;95.80;;;;;;5008585;28;20062;-72
2021/03/05 02:58:07;;;;;;;63.53;33.20;;;6.50;96.00;;;;;;5005465;28;20103;-72
2021/03/05 03:00:33;;;;;;;59.38;31.95;;;6.40;96.30;;;;;;5010812;28;20484;-72
2021/03/05 03:02:59;;;;;;;61.78;34.58;;;6.50;96.20;;;;;;5007131;28;20039;-72
2021/03/05 03:05:28;;;;;;;57.67;33.10;;;6.50;96.30;;;;;;5022651;28;20029;-72
2021/03/05 03:07:55;;;;;;;57.58;33.05;;;6.50;96.30;;;;;;5015210;28;20141;-72
2021/03/05 03:10:24;;;;;;;59.38;32.25;;;6.50;96.20;;;;;;5025267;28;20413;-72
2021/03/05 03:12:55;;;;;;;58.35;32.47;;;6.50;96.10;;;;;;5012906;28;20438;-72
2021/03/05 03:15:24;;;;;;;62.75;34.50;;;6.40;96.00;;;;;;5007051;28;20175;-72
2021/03/05 03:17:52;;;;;;;60.08;33.33;;;6.50;96.30;;;;;;5005340;28;20227;-72
2021/03/05 03:20:20;;;;;;;61.88;32.15;;;6.40;96.50;;;;;;5005547;28;20037;-72
2021/03/05 03:22:46;;;;;;;53.78;27.85;;;6.50;96.30;;;;;;5007860;28;20034;-72
2021/03/05 03:25:13;;;;;;;45.65;24.05;;;6.40;95.90;;;;;;5005824;28;20037;-72
2021/03/05 03:27:39;;;;;;;43.88;22.38;;;6.30;95.90;;;;;;5021665;28;20736;-72
2021/03/05 03:30:09;;;;;;;42.70;23.83;;;6.20;95.70;;;;;;5004148;28;20116;-72
2021/03/05 03:32:36;;;;;;;44.38;22.65;;;6.20;95.90;;;;;;5010022;28;20037;-72
2021/03/05 03:35:05;;;;;;;37.70;21.55;;;6.20;95.70;;;;;;5004256;28;20076;-72
2021/03/05 03:37:32;;;;;;;34.35;19.65;;;6.10;95.80;;;;;;5004361;28;20077;-72
2021/03/05 03:39:59;;;;;;;43.50;23.55;;;6.00;95.50;;;;;;5002943;28;21586;-72
2021/03/05 03:42:25;;;;;;;46.63;24.30;;;5.90;96.60;;;;;;5009853;28;20032;-72
2021/03/05 03:44:50;;;;;;;46.00;24.27;;;5.70;97.00;;;;;;5003140;28;20034;-72
2021/03/05 03:47:21;;;;;;;46.70;25.20;;;5.70;96.80;;;;;;5004735;28;20048;-72
2021/03/05 03:49:51;;;;;;;50.13;25.75;;;5.70;97.10;;;;;;5003099;28;20034;-72
2021/03/05 03:52:26;;;;;;;56.28;26.80;;;5.70;97.20;;;;;;5003512;28;20102;-72
2021/03/05 03:54:54;;;;;;;53.13;25.63;;;5.60;97.30;;;;;;5005942;28;20499;-72
2021/03/05 03:57:22;;;;;;;45.10;26.33;;;5.50;97.40;;;;;;5002439;28;20088;-72
2021/03/05 03:59:50;;;;;;;48.08;26.20;;;5.50;97.40;;;;;;5004337;28;20109;-72
2021/03/05 04:02:18;;;;;;;47.33;27.65;;;5.40;97.40;;;;;;5003459;28;20033;-72
2021/03/05 04:04:46;;;;;;;47.00;24.65;;;5.40;97.50;;;;;;5000513;28;20037;-72
2021/03/05 04:07:12;;;;;;;46.17;25.52;;;5.50;97.40;;;;;;4998448;28;20030;-72
2021/03/05 04:09:39;;;;;;;43.45;24.52;;;5.40;97.40;;;;;;5000276;28;20077;-72
2021/03/05 04:12:06;;;;;;;34.75;16.50;;;5.30;97.50;;;;;;4996101;28;20040;-72
2021/03/05 04:14:32;;;;;;;36.10;18.48;;;5.70;96.00;;;;;;5000031;28;21323;-72
2021/03/05 04:16:58;;;;;;;37.20;19.75;;;5.70;95.80;;;;;;4997867;28;20518;-72
2021/03/05 04:19:25;;;;;;;39.97;19.25;;;5.50;96.20;;;;;;4997196;28;20030;-72
2021/03/05 04:21:52;;;;;;;36.45;18.92;;;5.60;95.80;;;;;;4997001;28;20029;-72
2021/03/05 04:24:19;;;;;;;43.00;21.20;;;5.60;95.90;;;;;;4996482;28;20034;-72
2021/03/05 04:26:45;;;;;;;39.80;19.48;;;5.60;96.00;;;;;;4995474;28;20112;-72
2021/03/05 04:29:11;;;;;;;44.40;21.38;;;5.50;96.00;;;;;;4994893;28;20037;-72
2021/03/05 04:31:37;;;;;;;37.08;19.52;;;5.40;96.40;;;;;;4995815;28;20029;-72
2021/03/05 04:34:03;;;;;;;41.08;21.48;;;5.30;96.60;;;;;;4994126;28;20903;-72
2021/03/05 04:36:29;;;;;;;33.65;17.80;;;5.10;96.90;;;;;;4998955;28;20240;-72
2021/03/05 04:38:55;;;;;;;31.13;15.40;;;5.20;96.50;;;;;;4995987;28;20872;-72
2021/03/05 04:41:21;;;;;;;29.20;18.50;;;5.70;95.40;;;;;;4997042;28;20042;-72
2021/03/05 04:43:46;;;;;;;43.40;21.05;;;5.70;95.60;;;;;;4996822;28;20460;-72
2021/03/05 04:46:12;;;;;;;36.65;19.98;;;5.30;96.40;;;;;;5003196;28;20361;-72
2021/03/05 04:48:38;;;;;;;37.22;20.63;;;5.20;96.70;;;;;;4998181;28;20441;-72
2021/03/05 04:51:04;;;;;;;37.05;19.80;;;5.10;96.80;;;;;;4997000;28;20530;-72
2021/03/05 04:53:29;;;;;;;34.13;18.98;;;5.20;96.80;;;;;;5001499;28;20503;-72
2021/03/05 04:55:55;;;;;;;30.65;17.98;;;5.20;96.80;;;;;;4994919;28;20101;-72
2021/03/05 04:58:21;;;;;;;36.00;20.00;;;5.30;96.50;;;;;;4998532;28;20046;-72
2021/03/05 05:00:46;;;;;;;33.65;18.98;;;5.10;96.80;;;;;;4996177;28;20032;-72
2021/03/05 05:03:12;;;;;;;33.83;17.90;;;4.90;97.40;;;;;;4996908;28;20045;-72
2021/03/05 05:05:39;;;;;;;38.42;18.52;;;5.10;97.00;;;;;;4997127;28;20401;-72
2021/03/05 05:08:06;;;;;;;33.17;18.35;;;5.10;96.90;;;;;;5001429;28;20036;-73
2021/03/05 05:10:32;;;;;;;32.30;16.15;;;5.00;97.10;;;;;;4996331;28;20026;-72
2021/03/05 05:12:58;;;;;;;28.70;15.95;;;5.20;96.60;;;;;;5015545;28;20041;-72
2021/03/05 05:15:24;;;;;;;33.00;15.90;;;5.40;96.20;;;;;;4995695;28;20094;-72
2021/03/05 05:17:50;;;;;;;31.98;15.13;;;5.40;96.00;;;;;;4999996;28;20115;-72
2021/03/05 05:20:15;;;;;;;33.47;16.70;;;5.30;96.00;;;;;;4995316;28;20606;-72
2021/03/05 05:22:42;;;;;;;30.63;15.02;;;5.10;96.40;;;;;;4995757;28;20517;-72
2021/03/05 05:25:08;;;;;;;28.23;13.70;;;5.20;96.40;;;;;;4996407;28;20033;-73
2021/03/05 05:27:34;;;;;;;29.55;16.08;;;5.40;96.10;;;;;;4996240;28;20115;-72
2021/03/05 05:30:01;;;;;;;31.45;15.38;;;5.20;96.20;;;;;;4998077;28;20026;-72
2021/03/05 05:32:27;;;;;;;25.95;14.77;;;5.30;96.10;;;;;;4995616;28;20029;-72
2021/03/05 05:34:52;;;;;;;24.85;13.95;;;5.50;95.60;;;;;;4994087;28;20088;-72
2021/03/05 05:37:18;;;;;;;26.13;13.07;;;5.50;95.20;;;;;;4994160;28;20395;-72
2021/03/05 05:39:45;;;;;;;28.65;14.85;;;5.40;95.40;;;;;;4999431;28;20034;-72
2021/03/05 05:42:10;;;;;;;26.98;13.50;;;5.20;95.70;;;;;;4995814;28;21186;-72
2021/03/05 05:44:37;;;;;;;27.50;14.38;;;5.30;95.40;;;;;;4995201;28;20478;-72
2021/03/05 05:47:03;;;;;;;29.58;13.93;;;5.40;95.10;;;;;;4996198;28;20041;-72
2021/03/05 05:49:29;;;;;;;22.15;12.77;;;5.60;94.80;;;;;;4997212;28;20033;-72
2021/03/05 05:52:02;;;;;;;25.00;13.55;;;5.50;95.10;;;;;;4994150;28;20034;-72
2021/03/05 05:54:30;;;;;;;25.80;12.45;;;5.10;95.70;;;;;;5000730;28;20037;-72
2021/03/05 05:56:56;;;;;;;22.90;13.02;;;5.10;95.80;;;;;;4995687;28;20132;-72
2021/03/05 05:59:25;;;;;;;28.52;14.65;;;5.10;96.00;;;;;;4995220;28;20636;-72
2021/03/05 06:01:53;;;;;;;27.05;13.48;;;5.00;96.10;;;;;;5000107;28;20029;-72
2021/03/05 06:04:20;;;;;;;34.35;16.70;;;5.10;96.20;;;;;;4995568;28;20687;-72
2021/03/05 06:06:46;;;;;;;33.83;16.25;;;5.00;96.20;;;;;;4994777;28;20971;-72
2021/03/05 06:09:11;;;;;;;29.65;13.90;;;5.00;96.50;;;;;;4993590;28;20192;-72
2021/03/05 06:11:39;;;;;;;30.50;16.00;;;4.90;96.50;;;;;;4994608;28;20187;-72
2021/03/05 06:14:06;;;;;;;29.38;13.77;;;4.70;97.20;;;;;;5001275;28;20033;-75
2021/03/05 06:16:33;;;;;;;20.15;12.00;;;5.00;96.50;;;;;;5005610;28;20037;-72
2021/03/05 06:18:59;;;;;;;27.65;14.25;;;5.20;95.90;;;;;;5000051;28;20511;-71
2021/03/05 06:21:39;;;;;;;28.70;12.90;;;5.30;95.70;;;;;;4998205;28;20037;-71
2021/03/05 06:24:08;;;;;;;32.42;13.32;;;5.50;95.40;;;;;;5000188;28;20042;-71
2021/03/05 06:26:49;;;;;;;24.90;13.23;;;5.40;95.40;;;;;;5004045;28;20083;-71
2021/03/05 06:29:16;;;;;;;29.83;13.23;;;5.40;95.30;;;;;;4999223;28;20492;-70
2021/03/05 06:31:50;;;;;;;21.23;11.52;;;5.50;95.30;;;;;;4999788;28;20029;-71
2021/03/05 06:34:16;;;;;;;21.42;12.70;;;5.50;95.10;;;;;;4998093;28;20072;-70
2021/03/05 06:36:41;;;;;;;26.25;12.85;;;5.60;95.10;;;;;;5001374;28;20601;-70
2021/03/05 06:39:07;;;;;;;25.63;14.43;;;5.50;95.50;;;;;;4999435;28;20131;-70
2021/03/05 06:41:35;;;;;;;27.35;13.20;;;5.40;95.60;;;;;;4998465;28;21252;-70
2021/03/05 06:44:02;;;;;;;25.90;13.52;;;5.40;95.60;;;;;;5001325;28;20036;-74
2021/03/05 06:46:30;;;;;;;24.08;12.98;;;5.30;95.90;;;;;;5010094;28;20034;-73
2021/03/05 06:48:57;;;;;;;27.90;13.82;;;5.10;96.20;;;;;;5019475;28;20029;-70
2021/03/05 06:51:23;;;;;;;25.30;13.85;;;5.10;96.10;;;;;;5026469;28;20018;-70
2021/03/05 06:53:49;;;;;;;24.38;13.25;;;5.10;97.30;;;;;;5015121;28;20026;-70
2021/03/05 06:56:26;;;;;;;25.52;13.20;;;5.10;96.70;;;;;;5000150;28;20043;-70
2021/03/05 06:59:08;;;;;;;23.85;13.63;;;4.80;97.10;;;;;;4997342;28;20037;-70
2021/03/05 07:01:56;;;;;;;29.83;14.90;;;4.90;97.50;;;;;;4998270;28;20025;-70
2021/03/05 07:04:27;;;;;;;22.13;13.02;;;5.00;97.30;;;;;;5001636;28;20036;-70
2021/03/05 07:07:04;;;;;;;21.80;12.68;;;5.30;96.70;;;;;;5004978;28;20021;-70
2021/03/05 07:09:31;;;;;;;31.90;14.48;;;5.00;97.20;;;;;;4998904;28;20029;-70
2021/03/05 07:11:58;;;;;;;27.95;13.07;;;5.10;97.10;;;;;;5000666;28;20036;-70
2021/03/05 07:14:31;;;;;;;25.35;13.63;;;5.20;96.20;;;;;;4998412;28;20045;-70
2021/03/05 07:16:58;;;;;;;22.63;10.82;;;5.50;95.70;;;;;;5006021;28;20443;-70
2021/03/05 07:19:29;;;;;;;21.17;11.95;;;5.70;94.60;;;;;;4999007;28;20022;-70
2021/03/05 07:21:56;;;;;;;19.13;10.93;;;5.80;94.10;;;;;;4998201;28;20034;-70
2021/03/05 07:24:23;;;;;;;34.58;15.98;;;5.90;94.20;;;;;;4998735;28;20125;-70
2021/03/05 07:26:56;;;;;;;27.55;14.73;;;6.00;93.90;;;;;;4999293;28;20035;-70
2021/03/05 07:29:25;;;;;;;24.58;13.98;;;5.80;94.60;;;;;;5005138;28;20030;-70
2021/03/05 07:32:18;;;;;;;28.05;13.52;;;5.70;95.00;;;;;;5000554;28;20546;-70
2021/03/05 07:35:23;;;;;;;22.10;13.20;;;5.70;95.50;;;;;;4999273;28;20053;-70
2021/03/05 07:37:59;;;;;;;27.98;13.25;;;5.50;95.40;;;;;;4991724;28;20057;-70
2021/03/05 07:40:26;;;;;;;25.25;14.38;;;5.50;95.30;;;;;;4997929;28;20034;-70
2021/03/05 07:42:52;;;;;;;26.73;14.38;;;5.40;95.40;;;;;;4997823;28;20037;-70
2021/03/05 07:45:18;;;;;;;28.58;13.57;;;5.40;96.10;;;;;;4996644;28;20021;-70
2021/03/05 07:47:46;;;;;;;26.98;13.63;;;5.60;95.80;;;;;;5001288;28;20029;-70
2021/03/05 07:50:15;;;;;;;26.88;13.23;;;5.60;95.30;;;;;;4997153;28;20037;-70
2021/03/05 07:52:42;;;;;;;24.50;13.80;;;5.80;95.30;;;;;;5001521;28;20033;-70
2021/03/05 07:55:08;;;;;;;43.47;13.77;;;5.70;96.00;;;;;;5013222;28;20545;-70
2021/03/05 07:57:34;;;;;;;28.48;13.25;;;5.70;95.60;;;;;;4996837;28;22118;-70
2021/03/05 08:00:01;;;;;;;32.13;14.63;;;5.80;95.30;;;;;;5001730;28;20052;-70
2021/03/05 08:02:56;;;;;;;26.30;13.70;;;5.90;95.10;;;;;;5007730;28;20486;-70
2021/03/05 08:05:39;;;;;;;23.48;13.88;;;6.00;94.70;;;;;;5006030;28;20030;-70
2021/03/05 08:08:20;;;;;;;27.60;14.27;;;6.10;95.20;;;;;;4998045;28;20045;-70
2021/03/05 08:11:00;;;;;;;32.70;15.18;;;5.90;96.00;;;;;;5003066;28;20041;-70
2021/03/05 08:13:46;;;;;;;29.75;15.00;;;5.90;96.10;;;;;;4995328;28;20030;-71
2021/03/05 08:16:30;;;;;;;26.25;13.30;;;5.80;96.30;;;;;;4996519;28;20040;-70
2021/03/05 08:19:04;;;;;;;30.00;16.30;;;5.80;96.40;;;;;;5000883;28;20475;-70
2021/03/05 08:21:52;;;;;;;32.78;17.15;;;5.90;96.50;;;;;;5004644;28;20038;-70
2021/03/05 08:24:28;;;;;;;31.70;16.92;;;5.90;95.90;;;;;;4999076;28;20041;-70
2021/03/05 08:27:07;;;;;;;27.52;14.27;;;5.90;95.70;;;;;;4997656;28;20030;-70
2021/03/05 08:29:58;;;;;;;26.58;14.02;;;6.10;95.60;;;;;;4996140;28;20065;-70
2021/03/05 08:32:33;;;;;;;29.33;14.70;;;6.20;95.30;;;;;;4995349;28;20036;-70
2021/03/05 08:35:09;;;;;;;24.95;13.23;;;6.40;95.00;;;;;;4996572;28;20611;-70
2021/03/05 08:37:41;;;;;;;27.90;13.55;;;6.50;94.50;;;;;;4997637;28;20046;-70
2021/03/05 08:40:13;;;;;;;29.42;14.30;;;6.50;93.60;;;;;;5003535;28;20171;-70
2021/03/05 08:42:46;;;;;;;25.00;13.88;;;6.50;93.60;;;;;;4995643;28;20037;-70
2021/03/05 08:45:43;;;;;;;30.90;13.80;;;6.50;93.90;;;;;;4995814;28;20200;-70
2021/03/05 08:48:09;;;;;;;24.75;13.77;;;6.50;93.90;;;;;;4994480;28;20044;-70
2021/03/05 08:50:38;;;;;;;28.67;13.52;;;6.50;93.90;;;;;;5013662;28;20029;-70
2021/03/05 08:53:13;;;;;;;28.05;13.35;;;6.50;94.10;;;;;;5020124;28;20029;-70
2021/03/05 08:55:41;;;;;;;28.23;13.50;;;6.60;94.00;;;;;;5004497;28;20570;-70
2021/03/05 08:58:07;;;;;;;36.10;14.40;;;6.60;93.90;;;;;;5005068;28;20037;-70
2021/03/05 09:00:34;;;;;;;22.75;12.25;;;6.70;93.70;;;;;;5017398;28;20084;-70
2021/03/05 09:03:15;;;;;;;26.42;12.73;;;6.70;93.50;;;;;;5022210;28;20030;-70
2021/03/05 09:05:43;;;;;;;30.08;14.27;;;6.80;94.00;;;;;;5003450;28;20053;-71
2021/03/05 09:08:10;;;;;;;24.20;12.68;;;6.90;93.80;;;;;;4995427;28;20030;-70
2021/03/05 09:10:48;;;;;;;22.80;12.88;;;6.90;93.20;;;;;;4999096;28;20033;-70
2021/03/05 09:13:19;;;;;;;27.75;15.70;;;7.00;93.10;;;;;;5010636;28;20657;-71
2021/03/05 09:15:48;;;;;;;27.35;14.30;;;7.10;93.70;;;;;;5005851;28;20037;-70
2021/03/05 09:18:16;;;;;;;29.67;13.23;;;7.10;93.10;;;;;;5024086;28;20040;-70
2021/03/05 09:21:02;;;;;;;27.33;15.10;;;7.20;92.80;;;;;;5005598;28;20502;-70
2021/03/05 09:23:40;;;;;;;23.90;12.85;;;7.40;92.80;;;;;;5004770;28;20120;-70
2021/03/05 09:26:16;;;;;;;25.40;13.70;;;7.50;93.10;;;;;;5000162;28;20032;-70
2021/03/05 09:28:48;;;;;;;27.08;13.55;;;7.60;92.70;;;;;;4994816;28;20026;-70
2021/03/05 09:31:17;;;;;;;29.13;14.02;;;7.60;93.10;;;;;;4997869;28;20376;-70
2021/03/05 09:33:44;;;;;;;28.83;15.25;;;7.70;92.40;;;;;;4994439;28;20057;-70
2021/03/05 09:36:11;;;;;;;23.40;13.93;;;7.60;92.00;;;;;;4995187;28;20238;-70
2021/03/05 09:38:39;;;;;;;26.70;13.73;;;7.60;92.10;;;;;;4999066;28;20037;-70
2021/03/05 09:41:10;;;;;;;29.73;13.30;;;7.70;91.90;;;;;;5000472;28;20684;-70
2021/03/05 09:43:36;;;;;;;27.23;13.85;;;7.90;92.40;;;;;;4997650;28;20034;-70
2021/03/05 09:46:35;;;;;;;28.33;13.50;;;8.00;92.00;;;;;;5011712;28;20080;-70
2021/03/05 09:49:21;;;;;;;27.60;14.73;;;8.00;91.80;;;;;;4996115;28;20042;-70
2021/03/05 09:51:46;;;;;;;28.05;15.60;;;8.20;92.20;;;;;;4994762;28;20045;-70
2021/03/05 09:54:12;;;;;;;25.30;14.63;;;8.10;91.80;;;;;;4996348;28;20427;-70
2021/03/05 09:56:45;;;;;;;25.48;13.82;;;8.10;91.80;;;;;;5004873;28;20080;-70
2021/03/05 09:59:11;;;;;;;31.38;16.00;;;8.10;91.40;;;;;;4996449;28;20688;-70
2021/03/05 10:01:42;;;;;;;25.92;14.52;;;8.10;91.30;;;;;;4995690;28;20574;-70
2021/03/05 10:04:10;;;;;;;23.55;13.65;;;8.20;91.40;;;;;;4995889;28;20022;-70
2021/03/05 10:06:36;;;;;;;23.55;14.35;;;8.40;91.00;;;;;;4994903;28;20032;-70
2021/03/05 10:09:15;;;;;;;28.23;14.35;;;8.30;90.70;;;;;;4994584;28;20030;-70
2021/03/05 10:11:42;;;;;;;26.70;14.50;;;8.40;90.30;;;;;;5000897;28;20113;-70
2021/03/05 10:14:29;;;;;;;26.63;14.48;;;8.50;90.30;;;;;;4995893;28;20495;-69
2021/03/05 10:17:06;;;;;;;27.48;14.60;;;8.70;90.60;;;;;;4995117;28;20080;-70
2021/03/05 10:19:31;;;;;;;24.92;14.52;;;8.70;90.00;;;;;;4998055;28;20152;-70
2021/03/05 10:21:59;;;;;;;37.13;16.25;;;8.70;89.70;;;;;;4998267;28;20033;-70
2021/03/05 10:24:27;;;;;;;26.70;14.25;;;8.80;90.80;;;;;;4997330;28;20033;-70
2021/03/05 10:29:46;;;;;;;25.80;14.73;;;9.00;90.10;;;;;;4994454;28;20042;-70
2021/03/05 10:32:25;;;;;;;28.00;13.85;;;9.30;89.10;;;;;;4995952;28;20037;-70
2021/03/05 10:34:55;;;;;;;26.90;14.60;;;9.30;88.50;;;;;;4994907;28;20488;-70
2021/03/05 10:37:21;;;;;;;26.63;14.20;;;9.30;89.40;;;;;;4994247;28;20046;-70
2021/03/05 10:39:48;;;;;;;24.08;12.95;;;9.50;89.20;;;;;;4993955;28;20597;-70
2021/03/05 10:42:18;;;;;;;26.23;13.88;;;9.60;88.90;;;;;;4994852;28;20037;-70
2021/03/05 10:44:47;;;;;;;29.33;15.10;;;9.70;88.30;;;;;;5008842;28;20037;-70
2021/03/05 10:47:15;;;;;;;29.48;15.88;;;9.90;88.40;;;;;;5021369;28;20037;-70
2021/03/05 10:49:42;;;;;;;29.67;14.52;;;9.80;87.80;;;;;;5021177;28;20029;-70
2021/03/05 10:52:12;;;;;;;32.30;14.85;;;10.10;88.20;;;;;;5023454;28;20033;-70
2021/03/05 10:54:42;;;;;;;24.63;14.52;;;10.20;87.30;;;;;;5004622;28;20037;-70
2021/03/05 10:57:13;;;;;;;31.58;15.85;;;10.40;87.60;;;;;;4999290;28;21900;-70
2021/03/05 10:59:39;;;;;;;25.67;15.90;;;10.70;85.50;;;;;;4996140;28;20040;-70
2021/03/05 11:02:06;;;;;;;33.40;14.93;;;10.60;85.40;;;;;;4999616;28;20033;-70
2021/03/05 11:04:32;;;;;;;25.08;14.88;;;10.50;85.80;;;;;;5003104;28;20026;-70
2021/03/05 11:06:57;;;;;;;27.70;15.57;;;10.70;84.80;;;;;;5017624;28;20087;-70
2021/03/05 11:09:25;;;;;;;22.75;13.07;;;10.60;83.70;;;;;;5021439;28;20111;-70
2021/03/05 11:11:51;;;;;;;24.92;14.55;;;10.90;84.60;;;;;;5026618;28;20423;-71
2021/03/05 11:14:17;;;;;;;30.17;14.30;;;10.90;84.60;;;;;;5017366;28;20622;-70
2021/03/05 11:16:43;;;;;;;26.83;16.70;;;10.80;83.40;;;;;;5007071;28;20026;-70
2021/03/05 11:19:09;;;;;;;28.63;15.63;;;10.80;84.70;;;;;;5006053;28;20029;-70
2021/03/05 11:21:36;;;;;;;32.70;15.18;;;11.20;84.60;;;;;;5004510;28;20582;-70
2021/03/05 11:24:03;;;;;;;31.60;15.52;;;11.40;83.50;;;;;;5003770;28;20032;-70
2021/03/05 11:26:29;;;;;;;27.52;15.73;;;11.60;83.00;;;;;;4999390;28;20038;-70
2021/03/05 11:28:55;;;;;;;27.20;15.25;;;11.70;82.40;;;;;;4999253;28;20033;-70
2021/03/05 11:31:22;;;;;;;27.63;15.45;;;11.70;81.20;;;;;;4997982;28;20175;-70
2021/03/05 11:33:47;;;;;;;29.00;16.83;;;11.60;81.70;;;;;;5000532;28;20137;-70
2021/03/05 11:36:15;;;;;;;94.18;23.35;;;11.80;82.50;;;;;;5003895;28;20025;-70
2021/03/05 11:38:43;;;;;;;30.58;15.15;;;12.00;82.20;;;;;;4998926;28;20065;-70
2021/03/05 11:41:09;;;;;;;25.35;13.63;;;12.30;81.80;;;;;;4997818;28;20041;-70
2021/03/05 11:43:49;;;;;;;24.77;14.40;;;12.20;80.80;;;;;;4997992;28;20134;-71
2021/03/05 11:46:17;;;;;;;27.73;14.00;;;12.50;81.30;;;;;;4997436;28;20029;-70
2021/03/05 11:48:43;;;;;;;23.95;13.65;;;12.50;79.40;;;;;;5013535;28;20509;-70
2021/03/05 11:51:09;;;;;;;24.70;14.43;;;12.50;79.30;;;;;;5002712;28;20025;-70
2021/03/05 11:53:35;;;;;;;23.13;12.43;;;12.50;80.00;;;;;;4998560;28;20061;-70
2021/03/05 11:56:01;;;;;;;30.45;15.07;;;12.90;79.40;;;;;;5000481;28;20040;-70
2021/03/05 11:58:27;;;;;;;25.38;13.88;;;12.90;79.60;;;;;;4998468;28;20140;-70
2021/03/05 12:00:52;;;;;;;27.92;13.50;;;12.90;78.90;;;;;;4999188;28;20033;-70
2021/03/05 12:03:18;;;;;;;22.63;12.35;;;13.10;77.70;;;;;;4998477;28;20033;-70
2021/03/05 12:05:44;;;;;;;24.25;13.00;;;13.00;77.50;;;;;;4997253;28;20038;-70
2021/03/05 12:08:10;;;;;;;24.30;12.57;;;13.10;77.80;;;;;;4997135;28;20075;-70
2021/03/05 12:10:35;;;;;;;23.42;13.10;;;13.00;77.50;;;;;;5004484;28;20231;-70
2021/03/05 12:13:01;;;;;;;21.73;13.20;;;13.20;77.50;;;;;;4998110;28;20483;-70
2021/03/05 12:15:27;;;;;;;22.02;12.00;;;13.30;76.90;;;;;;4995772;28;20397;-70
2021/03/05 12:17:53;;;;;;;21.58;12.65;;;13.40;77.60;;;;;;4996971;28;20687;-70
2021/03/05 12:20:18;;;;;;;24.48;11.60;;;13.60;77.30;;;;;;5001149;28;20172;-70
2021/03/05 12:22:44;;;;;;;25.33;12.50;;;13.60;76.50;;;;;;5005713;28;20034;-70
2021/03/05 12:25:10;;;;;;;17.92;11.40;;;13.60;75.50;;;;;;4996671;28;20021;-70
2021/03/05 12:27:36;;;;;;;27.15;14.07;;;13.50;75.00;;;;;;4999815;28;20469;-70
2021/03/05 12:30:04;;;;;;;29.98;12.88;;;13.60;77.10;;;;;;4998033;28;20033;-70
2021/03/05 12:32:29;;;;;;;33.20;13.15;;;13.60;76.20;;;;;;5002996;28;20033;-70
2021/03/05 12:34:55;;;;;;;20.33;11.70;;;13.70;76.30;;;;;;4996928;28;20347;-71
2021/03/05 12:37:21;;;;;;;23.45;13.10;;;13.70;74.20;;;;;;4997030;28;20183;-70
2021/03/05 12:39:46;;;;;;;29.23;12.48;;;13.70;76.30;;;;;;4997129;28;20037;-71
2021/03/05 12:42:13;;;;;;;20.85;11.35;;;13.90;75.40;;;;;;4995032;28;20529;-71
2021/03/05 12:44:38;;;;;;;27.58;12.45;;;14.10;75.00;;;;;;4994709;28;20144;-71
2021/03/05 12:47:04;;;;;;;20.98;11.45;;;14.20;75.80;;;;;;5003017;28;20528;-71
2021/03/05 12:49:30;;;;;;;18.27;10.65;;;14.20;74.60;;;;;;4995234;28;20026;-71